createdAt,value
2022-07-31T05:32:53.477Z,100326.22
2022-07-31T05:38:15.292Z,100327.53
2022-07-31T05:43:58.194Z,100321.72
2022-07-31T05:49:27.292Z,100301.63
2022-07-31T05:54:54.424Z,100312.72
2022-07-31T06:00:56.509Z,100295.22
2022-07-31T06:06:19.310Z,100307.88
2022-07-31T06:11:42.777Z,100302.94
2022-07-31T06:17:09.042Z,100303.34
2022-07-31T06:22:33.249Z,100289.97
2022-07-31T06:27:59.827Z,100304.25
2022-07-31T06:33:37.062Z,100301.59
2022-07-31T06:39:00.717Z,100265.47
2022-07-31T06:44:24.522Z,100252.81
2022-07-31T06:50:06.751Z,100281.53
2022-07-31T06:55:32.748Z,100276.06
2022-07-31T07:00:58.279Z,100262.97
2022-07-31T07:06:24.877Z,100284.13
2022-07-31T07:11:51.798Z,100202.84
2022-07-31T07:17:17.914Z,100261.28
2022-07-31T07:22:46.702Z,100274.09
2022-07-31T07:28:30.345Z,100212.03
2022-07-31T07:34:02.761Z,100230.41
2022-07-31T07:39:26.951Z,100264.50
2022-07-31T07:44:48.810Z,100290.56
2022-07-31T07:50:13.564Z,100280.13
2022-07-31T07:55:56.588Z,100284.59
2022-07-31T08:01:37.304Z,100290.84
2022-07-31T08:07:41.595Z,100294.75
2022-07-31T08:13:30.378Z,100291.00
2022-07-31T08:19:11.153Z,100266.50
2022-07-31T08:24:33.301Z,100270.78
2022-07-31T08:30:00.667Z,100265.59
2022-07-31T08:35:27.809Z,100254.97
2022-07-31T08:40:51.751Z,100245.81
2022-07-31T08:46:22.637Z,100244.06
2022-07-31T08:51:55.922Z,100231.13
2022-07-31T08:57:38.146Z,100216.75
2022-07-31T09:03:00.681Z,100204.22
2022-07-31T09:08:42.702Z,100197.84
2022-07-31T09:14:18.660Z,100220.69
2022-07-31T09:19:51.674Z,100202.84
2022-07-31T09:25:20.923Z,100212.72
2022-07-31T09:31:08.919Z,100248.78
2022-07-31T09:36:47.111Z,100217.06
2022-07-31T09:42:38.775Z,100235.06
2022-07-31T09:48:19.551Z,100237.28
2022-07-31T09:53:57.661Z,100236.25
2022-07-31T09:59:48.458Z,100241.69
2022-07-31T10:05:13.632Z,100243.47
2022-07-31T10:10:43.501Z,100218.50
2022-07-31T10:16:23.452Z,100206.88
2022-07-31T10:22:12.119Z,100208.00
2022-07-31T10:27:39.404Z,100230.09
2022-07-31T10:33:27.920Z,100231.41
2022-07-31T10:39:54.682Z,100232.56
2022-07-31T10:45:26.923Z,100227.03
2022-07-31T10:51:16.694Z,100224.38
2022-07-31T10:56:58.925Z,100230.78
2022-07-31T11:02:52.608Z,100229.81
2022-07-31T11:08:45.893Z,100231.25
2022-07-31T11:14:41.111Z,100219.34
2022-07-31T11:20:31.141Z,100211.56
2022-07-31T11:25:53.194Z,100224.97
2022-07-31T11:31:17.952Z,100218.28
2022-07-31T11:36:47.008Z,100224.06
2022-07-31T11:42:13.474Z,100216.69
2022-07-31T11:48:11.675Z,100211.41
2022-07-31T11:53:30.196Z,100216.09
2022-07-31T11:58:58.705Z,100198.34
2022-07-31T12:04:20.825Z,100202.13
2022-07-31T12:10:01.065Z,100240.16
2022-07-31T12:15:25.497Z,100229.41
2022-07-31T12:20:55.869Z,100227.22
2022-07-31T12:26:32.761Z,100233.75
2022-07-31T12:31:55.342Z,100228.50
2022-07-31T12:37:22.710Z,100228.00
2022-07-31T12:42:46.251Z,100223.78
2022-07-31T12:48:18.990Z,100220.78
2022-07-31T12:53:41.131Z,100212.16
2022-07-31T12:59:03.332Z,100220.66
2022-07-31T13:04:26.113Z,100151.25
2022-07-31T13:10:19.784Z,100159.22
2022-07-31T13:15:33.592Z,100162.22
2022-07-31T13:20:56.016Z,100172.25
2022-07-31T13:26:19.000Z,100196.94
2022-07-31T13:31:41.153Z,100199.56
2022-07-31T13:37:03.513Z,100183.25
2022-07-31T13:42:29.338Z,100203.75
2022-07-31T13:47:52.950Z,100184.69
2022-07-31T13:53:17.437Z,100204.38
2022-07-31T13:58:40.814Z,100196.97
2022-07-31T14:09:27.452Z,100193.56
2022-07-31T14:14:49.750Z,100171.13
2022-07-31T14:20:12.848Z,100174.50
2022-07-31T14:25:40.413Z,100174.28
2022-07-31T14:31:04.966Z,100179.09
2022-07-31T14:36:27.059Z,100175.63
2022-07-31T14:41:50.231Z,100175.28
2022-07-31T14:47:12.739Z,100172.94
2022-07-31T14:52:35.470Z,100134.47
2022-07-31T14:57:57.858Z,100161.91
2022-07-31T15:03:19.513Z,100177.38
2022-07-31T15:08:42.288Z,100164.53
2022-07-31T15:14:04.678Z,100164.22
2022-07-31T15:19:27.022Z,100186.81
2022-07-31T15:24:50.251Z,100148.31
2022-07-31T15:30:13.991Z,100124.38
2022-07-31T15:35:36.025Z,100176.19
2022-07-31T15:40:58.126Z,100184.41
2022-07-31T15:46:20.641Z,100178.34
2022-07-31T15:51:43.182Z,100168.38
2022-07-31T15:57:05.842Z,100195.38
2022-07-31T16:02:28.549Z,100190.47
2022-07-31T16:08:29.714Z,100194.81
2022-07-31T16:13:37.662Z,100188.97
2022-07-31T16:19:02.032Z,100196.66
2022-07-31T16:24:25.955Z,100187.31
2022-07-31T16:29:59.430Z,100148.16
2022-07-31T17:23:06.338Z,100139.22
2022-07-31T17:28:32.797Z,100119.09
2022-07-31T17:34:00.590Z,100132.31
2022-07-31T17:39:28.559Z,100224.38
2022-07-31T17:44:55.148Z,100193.59
2022-07-31T17:50:20.210Z,100162.50
2022-07-31T17:55:46.631Z,100203.19
2022-07-31T18:01:10.739Z,100182.16
2022-07-31T18:06:34.510Z,100245.75
2022-07-31T18:11:58.637Z,100241.22
2022-07-31T18:17:39.148Z,100216.63
2022-07-31T18:23:01.501Z,100181.47
2022-07-31T18:28:24.010Z,100182.97
2022-07-31T18:33:47.080Z,100194.84
2022-07-31T18:39:08.972Z,100218.69
2022-07-31T18:44:30.916Z,100243.19
2022-07-31T18:50:59.944Z,100257.19
2022-07-31T18:55:37.483Z,100253.22
2022-07-31T19:00:59.101Z,100243.66
2022-07-31T19:06:23.206Z,100250.75
2022-07-31T19:11:50.825Z,100269.16
2022-07-31T19:17:16.449Z,100262.31
2022-07-31T19:22:42.001Z,100272.25
2022-07-31T19:28:05.050Z,100284.75
2022-07-31T19:33:38.145Z,100283.63
2022-07-31T19:39:00.702Z,100268.38
2022-07-31T19:44:23.161Z,100285.31
2022-07-31T19:49:47.032Z,100279.09
2022-07-31T19:55:11.261Z,100281.13
2022-07-31T20:00:33.470Z,100276.94
2022-07-31T20:05:56.881Z,100261.53
2022-07-31T20:11:18.921Z,100278.31
2022-07-31T20:16:41.741Z,100297.13
2022-07-31T20:22:03.908Z,100283.66
2022-07-31T20:27:26.650Z,100282.97
2022-07-31T20:32:49.459Z,100271.88
2022-07-31T20:38:15.988Z,100284.94
2022-07-31T20:43:38.566Z,100254.47
2022-07-31T20:49:01.297Z,100229.66
2022-07-31T20:54:34.027Z,100238.75
2022-07-31T20:59:58.041Z,100272.75
2022-07-31T21:05:39.340Z,100241.09
2022-07-31T21:11:06.397Z,100228.34
2022-07-31T21:16:29.100Z,100259.50
2022-07-31T21:21:51.800Z,100224.81
2022-07-31T21:27:16.331Z,100228.59
2022-07-31T21:32:39.243Z,100260.56
2022-07-31T21:38:04.119Z,100230.91
2022-07-31T21:43:40.312Z,100245.75
2022-07-31T21:49:15.722Z,100268.41
2022-07-31T21:54:42.499Z,100254.19
2022-07-31T22:00:13.968Z,100254.28
2022-07-31T22:05:56.050Z,100266.81
2022-07-31T22:11:28.271Z,100253.88
2022-07-31T22:16:50.971Z,100251.44
2022-07-31T22:22:13.567Z,100272.78
2022-07-31T22:27:56.174Z,100287.41
2022-07-31T22:33:41.209Z,100265.66
2022-07-31T22:39:10.522Z,100289.81
2022-07-31T22:44:32.211Z,100317.06
2022-07-31T22:49:55.761Z,100332.19
2022-07-31T22:55:18.123Z,100333.16
2022-07-31T23:00:39.660Z,100330.84
2022-07-31T23:06:03.102Z,100337.56
2022-07-31T23:11:43.621Z,100307.75
2022-07-31T23:17:05.641Z,100333.03
2022-07-31T23:22:30.870Z,100316.91
2022-07-31T23:27:56.009Z,100338.44
2022-07-31T23:33:17.852Z,100348.38
2022-07-31T23:38:39.897Z,100305.06
2022-07-31T23:44:04.701Z,100312.81
2022-07-31T23:49:27.091Z,100346.34
2022-07-31T23:54:49.159Z,100331.94
